createdAt,value
2023-11-24T21:14:00.748Z,83.92
2023-11-24T21:16:30.567Z,85.06
2023-11-24T21:19:00.844Z,86.02
2023-11-24T21:21:31.811Z,85.02
2023-11-24T21:24:00.901Z,85.79
2023-11-24T21:26:29.707Z,85.85
2023-11-24T21:28:58.394Z,87.71
2023-11-24T21:31:26.919Z,86.60
2023-11-24T21:33:54.862Z,87.14
2023-11-24T21:36:22.674Z,86.54
2023-11-24T21:38:50.437Z,85.19
2023-11-24T21:41:21.325Z,86.04
2023-11-24T21:43:49.604Z,87.13
2023-11-24T21:46:24.055Z,92.30
2023-11-24T21:48:52.048Z,93.40
2023-11-24T21:51:20.150Z,93.43
2023-11-24T21:53:48.425Z,93.82
2023-11-24T21:56:28.235Z,92.00
2023-11-24T21:58:56.090Z,92.19
2023-11-24T22:01:28.305Z,92.19
2023-11-24T22:03:58.362Z,92.27
2023-11-24T22:06:30.020Z,92.37
2023-11-24T22:08:58.716Z,92.15
2023-11-24T22:11:27.296Z,92.00
2023-11-24T22:13:56.126Z,92.41
2023-11-24T22:16:24.152Z,92.11
2023-11-24T22:18:52.206Z,92.00
2023-11-24T22:21:21.890Z,92.10
2023-11-24T22:23:50.811Z,93.02
2023-11-24T22:26:22.333Z,92.91
2023-11-24T22:28:52.361Z,92.24
2023-11-24T22:31:23.485Z,91.49
2023-11-24T22:33:52.835Z,92.44
2023-11-24T22:36:26.658Z,92.57
2023-11-24T22:38:56.023Z,92.03
2023-11-24T22:41:25.188Z,92.52
2023-11-24T22:43:54.583Z,92.12
2023-11-24T22:46:24.862Z,93.19
2023-11-24T22:48:54.090Z,92.99
2023-11-24T22:51:23.584Z,93.47
2023-11-24T22:53:52.888Z,92.43
2023-11-24T22:56:21.865Z,91.77
2023-11-24T22:58:56.737Z,93.24
2023-11-24T23:01:26.237Z,92.29
2023-11-24T23:03:59.502Z,92.19
2023-11-24T23:06:30.002Z,91.69
2023-11-24T23:08:58.629Z,90.14
2023-11-24T23:11:29.046Z,90.37
2023-11-24T23:13:59.065Z,89.90
2023-11-24T23:16:28.392Z,90.11
2023-11-24T23:18:56.675Z,89.28
2023-11-24T23:21:24.887Z,89.61
2023-11-24T23:23:53.665Z,88.93
2023-11-24T23:26:22.978Z,88.29
2023-11-24T23:28:51.433Z,89.40
2023-11-24T23:31:19.755Z,89.71
2023-11-24T23:33:47.967Z,90.15
2023-11-24T23:36:16.377Z,90.19
2023-11-24T23:38:46.285Z,88.83
2023-11-24T23:41:14.589Z,87.70
2023-11-24T23:43:42.623Z,89.19
2023-11-24T23:46:11.732Z,88.82
2023-11-24T23:48:41.139Z,88.59
2023-11-24T23:51:10.440Z,88.15
2023-11-24T23:53:38.379Z,87.95
2023-11-24T23:56:07.563Z,88.04
2023-11-24T23:58:38.662Z,88.16
